Terminal Aerodrome Forecast
Issued by NWS

Home | Current Version | Previous Version | Graphics & Text | Print | Product List | Glossary On
Versions: 1 2 3 4 5 6 7 8 9 10 11 12 13 14 15 16 17 18 19 20 21
000
FTUS43 KGRB 232300 RRA
TAFCWA
TAF
KCWA 232345Z 2400/2424 27012G17KT P6SM SCT250
     FM240100 22014G21KT 6SM BLSN SCT080 BKN120 WS012/23040KT
     FM241000 25015G23KT 4SM -SN BLSN SCT025 OVC050 WS012/24040KT
      TEMPO 2411/2415 2SM -SN SCT018 BKN030
     FM241600 29015G25KT 6SM BLSN BKN040
      AMD LTD TO CLD VIS AND WIND 2403/2411=

USA.gov is the U.S. government's official web portal to all federal, state and local government web resources and services.